Time,TemperatureF,DewpointF,PressureIn,WindDirection,WindDirectionDegrees,WindSpeedMPH,WindSpeedGustMPH,Humidity,HourlyPrecipIn,Conditions,Clouds,dailyrainin,SoftwareType,DateUTC
2012-04-13 00:03:00,54.3,34.5,30.00,NNE,32,2.2,2.2,47,0.00,,,0.00,VWS V13.01,2012-04-13 05:03:00,
2012-04-13 00:08:00,54.1,34.9,30.00,NE,45,0.0,0.0,48,0.00,,,0.00,VWS V13.01,2012-04-13 05:08:00,
2012-04-13 00:13:00,54.3,35.6,30.00,ESE,121,0.0,2.7,49,0.00,,,0.00,VWS V13.01,2012-04-13 05:13:00,
2012-04-13 00:18:00,54.3,35.1,30.00,North,11,0.0,0.0,48,0.00,,,0.00,VWS V13.01,2012-04-13 05:18:00,
2012-04-13 00:23:00,54.5,35.2,30.00,ENE,61,0.0,0.0,48,0.00,,,0.00,VWS V13.01,2012-04-13 05:23:00,
2012-04-13 00:28:00,54.7,35.9,30.00,NE,36,0.0,0.0,49,0.00,,,0.00,VWS V13.01,2012-04-13 05:28:00,
2012-04-13 00:33:00,54.9,35.6,30.00,NE,34,0.0,0.0,48,0.00,,,0.00,VWS V13.01,2012-04-13 05:33:00,
2012-04-13 00:38:00,55.0,35.2,30.00,North,9,2.7,2.7,47,0.00,,,0.00,VWS V13.01,2012-04-13 05:38:00,
2012-04-13 00:43:00,55.2,34.8,30.00,NNE,33,2.7,2.7,46,0.00,,,0.00,VWS V13.01,2012-04-13 05:43:00,
2012-04-13 00:48:00,55.4,35.0,30.00,NE,45,0.0,0.0,46,0.00,,,0.00,VWS V13.01,2012-04-13 05:48:00,
2012-04-13 00:53:00,55.6,34.6,30.00,NW,310,2.2,3.1,45,0.00,,,0.00,VWS V13.01,2012-04-13 05:53:00,
2012-04-13 00:58:00,55.9,35.5,30.00,NE,37,0.0,0.0,46,0.00,,,0.00,VWS V13.01,2012-04-13 05:58:00,
2012-04-13 01:03:00,55.9,34.9,30.00,NE,46,0.0,0.0,45,0.00,,,0.00,VWS V13.01,2012-04-13 06:03:00,
2012-04-13 01:08:00,56.1,34.5,30.00,NNE,29,2.2,2.7,44,0.00,,,0.00,VWS V13.01,2012-04-13 06:08:00,
2012-04-13 01:14:00,56.3,35.2,30.00,NNE,26,0.0,0.0,45,0.00,,,0.00,VWS V13.01,2012-04-13 06:14:00,
2012-04-13 01:19:00,56.3,34.7,30.00,NNE,15,0.0,0.0,44,0.00,,,0.00,VWS V13.01,2012-04-13 06:19:00,
2012-04-13 01:24:00,56.5,35.4,30.00,NNE,20,0.0,0.0,45,0.00,,,0.00,VWS V13.01,2012-04-13 06:24:00,
2012-04-13 01:29:00,56.7,35.0,30.00,NNE,17,0.0,0.0,44,0.00,,,0.00,VWS V13.01,2012-04-13 06:29:00,
2012-04-13 01:34:00,56.7,35.0,30.00,North,356,0.0,0.0,44,0.00,,,0.00,VWS V13.01,2012-04-13 06:34:00,
2012-04-13 01:39:00,56.7,35.6,30.00,NNE,22,0.0,0.0,45,0.00,,,0.00,VWS V13.01,2012-04-13 06:39:00,
2012-04-13 01:44:00,56.7,35.6,30.00,North,8,0.0,2.7,45,0.00,,,0.00,VWS V13.01,2012-04-13 06:44:00,
2012-04-13 01:49:00,56.7,35.6,30.00,NNW,345,0.0,0.0,45,0.00,,,0.00,VWS V13.01,2012-04-13 06:49:00,
2012-04-13 01:54:00,56.7,35.6,30.00,NNW,345,0.0,0.0,45,0.00,,,0.00,VWS V13.01,2012-04-13 06:54:00,
2012-04-13 01:59:00,56.7,35.0,30.00,NNW,342,0.0,0.0,44,0.00,,,0.00,VWS V13.01,2012-04-13 06:59:00,
2012-04-13 02:04:00,56.7,35.0,30.00,NNE,19,0.0,2.2,44,0.00,,,0.00,VWS V13.01,2012-04-13 07:04:00,
2012-04-13 02:09:00,56.7,35.6,30.00,NNE,19,0.0,0.0,45,0.00,,,0.00,VWS V13.01,2012-04-13 07:09:00,
2012-04-13 02:14:00,56.5,36.0,30.00,NNE,20,0.0,0.0,46,0.00,,,0.00,VWS V13.01,2012-04-13 07:14:00,
2012-04-13 02:19:00,56.3,35.8,30.00,NNE,23,0.0,0.0,46,0.00,,,0.00,VWS V13.01,2012-04-13 07:19:00,
2012-04-13 02:24:00,56.3,36.3,30.00,NNE,27,0.0,0.0,47,0.00,,,0.00,VWS V13.01,2012-04-13 07:24:00,
2012-04-13 02:29:00,56.5,36.0,30.00,NE,36,2.2,2.7,46,0.00,,,0.00,VWS V13.01,2012-04-13 07:29:00,
2012-04-13 02:34:00,56.5,36.5,30.00,NE,34,3.6,3.6,47,0.00,,,0.00,VWS V13.01,2012-04-13 07:34:00,
2012-04-13 02:39:00,56.7,37.2,30.00,NE,37,0.0,0.0,48,0.00,,,0.00,VWS V13.01,2012-04-13 07:39:00,
2012-04-13 02:44:00,56.7,36.7,30.00,NE,37,2.7,2.7,47,0.00,,,0.00,VWS V13.01,2012-04-13 07:44:00,
2012-04-13 02:49:00,56.8,36.8,30.00,NNE,33,0.0,2.2,47,0.00,,,0.00,VWS V13.01,2012-04-13 07:49:00,
2012-04-13 02:54:00,56.8,37.4,30.00,NNE,33,0.0,0.0,48,0.00,,,0.00,VWS V13.01,2012-04-13 07:54:00,
2012-04-13 02:59:00,56.8,36.8,29.97,NE,34,0.0,0.0,47,0.00,,,0.00,VWS V13.01,2012-04-13 07:59:00,
2012-04-13 03:04:00,56.8,36.3,29.97,NE,34,2.7,2.7,46,0.00,,,0.00,VWS V13.01,2012-04-13 08:04:00,
2012-04-13 03:09:00,56.8,36.3,29.97,NE,38,3.1,3.6,46,0.00,,,0.00,VWS V13.01,2012-04-13 08:09:00,
2012-04-13 03:14:00,56.8,36.3,29.97,NNE,20,4.0,4.0,46,0.00,,,0.00,VWS V13.01,2012-04-13 08:14:00,
2012-04-13 03:19:00,57.0,35.3,30.00,North,8,2.7,2.7,44,0.00,,,0.00,VWS V13.01,2012-04-13 08:19:00,
2012-04-13 03:24:00,57.2,36.1,30.00,NNE,13,3.6,3.6,45,0.00,,,0.00,VWS V13.01,2012-04-13 08:24:00,
2012-04-13 03:29:00,57.4,36.2,29.97,NE,51,2.2,2.2,45,0.00,,,0.00,VWS V13.01,2012-04-13 08:29:00,
2012-04-13 03:34:00,57.4,35.7,29.97,North,358,0.0,0.0,44,0.00,,,0.00,VWS V13.01,2012-04-13 08:34:00,
2012-04-13 03:39:00,57.4,35.1,29.97,NE,45,2.7,4.0,43,0.00,,,0.00,VWS V13.01,2012-04-13 08:39:00,
2012-04-13 03:45:00,57.4,35.1,29.97,NNE,32,4.0,4.0,43,0.00,,,0.00,VWS V13.01,2012-04-13 08:45:00,
2012-04-13 03:50:00,57.4,35.1,29.97,NE,48,0.0,0.0,43,0.00,,,0.00,VWS V13.01,2012-04-13 08:50:00,
2012-04-13 03:55:00,57.4,35.1,29.97,NE,38,0.0,3.1,43,0.00,,,0.00,VWS V13.01,2012-04-13 08:55:00,
2012-04-13 04:00:00,57.6,35.2,30.00,NNE,24,2.2,3.1,43,0.00,,,0.00,VWS V13.01,2012-04-13 09:00:00,
2012-04-13 04:01:00,57.6,35.2,30.00,NE,55,2.7,3.1,43,0.00,,,0.00,VWS V13.01,2012-04-13 09:01:00,
2012-04-13 04:06:00,57.6,35.2,30.00,NNE,32,3.1,3.1,43,0.00,,,0.00,VWS V13.01,2012-04-13 09:06:00,
2012-04-13 04:11:00,57.7,34.8,30.00,NE,36,2.7,2.7,42,0.00,,,0.00,VWS V13.01,2012-04-13 09:11:00,
2012-04-13 04:16:00,57.7,35.4,30.00,NE,41,2.7,2.7,43,0.00,,,0.00,VWS V13.01,2012-04-13 09:16:00,
2012-04-13 04:21:00,57.7,36.0,30.00,NE,41,2.7,2.7,44,0.00,,,0.00,VWS V13.01,2012-04-13 09:21:00,
2012-04-13 04:26:00,57.7,36.0,30.00,NE,46,3.1,3.6,44,0.00,,,0.00,VWS V13.01,2012-04-13 09:26:00,
2012-04-13 04:31:00,57.6,35.8,30.00,NE,41,0.0,0.0,44,0.00,,,0.00,VWS V13.01,2012-04-13 09:31:00,
2012-04-13 04:36:00,57.6,35.8,30.00,NE,40,3.6,5.4,44,0.00,,,0.00,VWS V13.01,2012-04-13 09:36:00,
2012-04-13 04:42:00,57.7,35.4,30.00,NE,48,3.1,3.1,43,0.00,,,0.00,VWS V13.01,2012-04-13 09:42:00,
2012-04-13 04:47:00,57.7,35.4,30.00,NE,47,3.1,3.6,43,0.00,,,0.00,VWS V13.01,2012-04-13 09:47:00,
2012-04-13 04:52:00,57.9,35.6,30.00,ENE,77,3.1,3.1,43,0.00,,,0.00,VWS V13.01,2012-04-13 09:52:00,
2012-04-13 04:57:00,57.9,35.6,30.00,ENE,70,0.0,0.0,43,0.00,,,0.00,VWS V13.01,2012-04-13 09:57:00,
2012-04-13 05:02:00,57.9,35.6,30.00,ENE,63,2.2,2.2,43,0.00,,,0.00,VWS V13.01,2012-04-13 10:02:00,
2012-04-13 05:06:00,57.9,35.6,30.00,NE,38,2.7,4.9,43,0.00,,,0.00,VWS V13.01,2012-04-13 10:06:00,
2012-04-13 05:11:00,57.9,35.6,30.00,NE,37,2.7,4.0,43,0.00,,,0.00,VWS V13.01,2012-04-13 10:11:00,
2012-04-13 05:16:00,57.9,35.6,30.00,NNE,14,2.7,4.0,43,0.00,,,0.00,VWS V13.01,2012-04-13 10:16:00,
2012-04-13 05:21:00,57.9,35.0,30.00,NNE,32,4.0,4.0,42,0.00,,,0.00,VWS V13.01,2012-04-13 10:21:00,
2012-04-13 05:27:00,57.9,36.2,30.00,NE,38,2.2,2.7,44,0.00,,,0.00,VWS V13.01,2012-04-13 10:27:00,
2012-04-13 05:32:00,57.7,35.4,30.00,NE,51,2.2,2.2,43,0.00,,,0.00,VWS V13.01,2012-04-13 10:32:00,
2012-04-13 05:37:00,57.7,36.0,30.00,NE,42,2.2,3.1,44,0.00,,,0.00,VWS V13.01,2012-04-13 10:37:00,
2012-04-13 05:42:00,57.7,35.4,30.00,NE,43,2.2,2.7,43,0.00,,,0.00,VWS V13.01,2012-04-13 10:42:00,
2012-04-13 05:47:00,57.7,35.4,30.00,NE,50,3.6,3.6,43,0.00,,,0.00,VWS V13.01,2012-04-13 10:47:00,
2012-04-13 05:53:00,57.7,35.4,30.00,ENE,67,2.7,3.1,43,0.00,,,0.00,VWS V13.01,2012-04-13 10:53:00,
2012-04-13 05:54:00,57.7,35.4,30.00,NE,35,2.2,3.6,43,0.00,,,0.00,VWS V13.01,2012-04-13 10:54:00,
2012-04-13 05:59:00,57.7,35.4,30.00,NNE,26,3.1,3.6,43,0.00,,,0.00,VWS V13.01,2012-04-13 10:59:00,
2012-04-13 06:04:00,57.7,35.4,30.00,NE,34,4.0,4.0,43,0.00,,,0.00,VWS V13.01,2012-04-13 11:04:00,
2012-04-13 06:09:00,57.7,35.4,30.00,NE,41,3.1,3.6,43,0.00,,,0.00,VWS V13.01,2012-04-13 11:09:00,
2012-04-13 06:14:00,57.6,35.2,30.00,NE,37,3.6,3.6,43,0.00,,,0.00,VWS V13.01,2012-04-13 11:14:00,
2012-04-13 06:19:00,57.6,35.2,30.00,NNE,33,2.7,2.7,43,0.00,,,0.00,VWS V13.01,2012-04-13 11:19:00,
2012-04-13 06:23:00,57.6,35.2,30.00,NE,41,0.0,0.0,43,0.00,,,0.00,VWS V13.01,2012-04-13 11:23:00,
2012-04-13 06:29:00,57.4,35.1,30.00,NE,52,2.7,2.7,43,0.00,,,0.00,VWS V13.01,2012-04-13 11:29:00,
2012-04-13 06:35:00,57.4,35.7,30.00,NNE,27,0.0,0.0,44,0.00,,,0.00,VWS V13.01,2012-04-13 11:35:00,
2012-04-13 06:41:00,57.2,35.5,30.00,NNE,33,2.7,2.7,44,0.00,,,0.00,VWS V13.01,2012-04-13 11:41:00,
2012-04-13 06:46:00,57.2,36.1,30.00,NE,51,0.0,0.0,45,0.00,,,0.00,VWS V13.01,2012-04-13 11:46:00,
2012-04-13 06:51:00,57.2,36.1,30.00,NE,51,0.0,0.0,45,0.00,,,0.00,VWS V13.01,2012-04-13 11:51:00,
2012-04-13 06:56:00,57.0,35.9,30.00,NNE,21,0.0,0.0,45,0.00,,,0.00,VWS V13.01,2012-04-13 11:56:00,
2012-04-13 07:01:00,57.0,36.5,29.97,NNE,32,0.0,0.0,46,0.00,,,0.00,VWS V13.01,2012-04-13 12:01:00,
2012-04-13 07:06:00,57.0,37.0,29.97,NE,37,2.7,2.7,47,0.00,,,0.00,VWS V13.01,2012-04-13 12:06:00,
2012-04-13 07:12:00,57.2,36.6,29.97,NE,37,3.6,3.6,46,0.00,,,0.00,VWS V13.01,2012-04-13 12:12:00,
2012-04-13 07:17:00,57.4,36.8,29.97,NE,50,3.1,3.1,46,0.00,,,0.00,VWS V13.01,2012-04-13 12:17:00,
2012-04-13 07:22:00,57.6,38.0,29.97,NNW,330,3.6,3.6,48,0.00,,,0.00,VWS V13.01,2012-04-13 12:22:00,
2012-04-13 07:27:00,57.9,36.7,29.97,NE,45,2.7,2.7,45,0.00,,,0.00,VWS V13.01,2012-04-13 12:27:00,
2012-04-13 07:33:00,58.1,37.5,30.00,North,357,2.7,2.7,46,0.00,,,0.00,VWS V13.01,2012-04-13 12:33:00,
2012-04-13 07:38:00,58.1,36.9,30.00,NE,39,2.7,2.7,45,0.00,,,0.00,VWS V13.01,2012-04-13 12:38:00,
2012-04-13 07:43:00,58.3,37.0,30.00,NE,44,4.5,4.5,45,0.00,,,0.00,VWS V13.01,2012-04-13 12:43:00,
2012-04-13 07:48:00,58.5,37.2,30.00,NE,48,3.1,3.6,45,0.00,,,0.00,VWS V13.01,2012-04-13 12:48:00,
2012-04-13 07:49:00,58.5,37.2,30.00,NE,43,2.7,2.7,45,0.00,,,0.00,VWS V13.01,2012-04-13 12:49:00,
2012-04-13 07:54:00,58.5,37.8,30.00,ENE,59,3.6,3.6,46,0.00,,,0.00,VWS V13.01,2012-04-13 12:54:00,
2012-04-13 07:59:00,58.5,38.3,30.00,NE,51,2.7,2.7,47,0.00,,,0.00,VWS V13.01,2012-04-13 12:59:00,
2012-04-13 08:04:00,58.6,37.9,29.97,ENE,69,2.7,2.7,46,0.00,,,0.00,VWS V13.01,2012-04-13 13:04:00,
2012-04-13 08:09:00,59.0,37.1,29.97,NE,54,3.6,3.6,44,0.00,,,0.00,VWS V13.01,2012-04-13 13:09:00,
2012-04-13 08:14:00,59.5,37.6,29.97,NE,40,3.1,3.6,44,0.00,,,0.00,VWS V13.01,2012-04-13 13:14:00,
2012-04-13 08:19:00,59.7,37.2,30.00,NE,47,4.0,4.0,43,0.00,,,0.00,VWS V13.01,2012-04-13 13:19:00,
2012-04-13 08:24:00,60.3,37.7,30.00,NE,39,2.2,2.7,43,0.00,,,0.00,VWS V13.01,2012-04-13 13:24:00,
2012-04-13 08:29:00,60.6,38.0,29.97,East,97,4.0,4.0,43,0.00,,,0.00,VWS V13.01,2012-04-13 13:29:00,
2012-04-13 08:34:00,61.2,37.9,29.97,East,79,5.8,5.8,42,0.00,,,0.00,VWS V13.01,2012-04-13 13:34:00,
2012-04-13 08:39:00,61.3,38.1,29.97,ENE,64,4.5,4.5,42,0.00,,,0.00,VWS V13.01,2012-04-13 13:39:00,
2012-04-13 08:44:00,61.7,38.4,29.97,ESE,104,5.8,6.7,42,0.00,,,0.00,VWS V13.01,2012-04-13 13:44:00,
2012-04-13 08:49:00,61.9,38.6,30.00,NE,46,3.1,3.1,42,0.00,,,0.00,VWS V13.01,2012-04-13 13:49:00,
2012-04-13 08:54:00,62.4,38.4,30.00,NW,325,2.2,5.4,41,0.00,,,0.00,VWS V13.01,2012-04-13 13:54:00,
2012-04-13 08:59:00,62.8,39.4,30.00,ENE,57,2.2,2.7,42,0.00,,,0.00,VWS V13.01,2012-04-13 13:59:00,
2012-04-13 09:04:00,63.0,39.5,30.00,ENE,63,3.6,4.9,42,0.00,,,0.00,VWS V13.01,2012-04-13 14:04:00,
2012-04-13 09:09:00,62.8,38.8,30.00,NNE,20,0.0,2.2,41,0.00,,,0.00,VWS V13.01,2012-04-13 14:09:00,
2012-04-13 09:14:00,63.0,40.1,30.00,NE,47,0.0,0.0,43,0.00,,,0.00,VWS V13.01,2012-04-13 14:14:00,
2012-04-13 09:19:00,63.7,40.2,30.00,NNE,30,4.0,4.5,42,0.00,,,0.00,VWS V13.01,2012-04-13 14:19:00,
2012-04-13 09:24:00,63.7,40.2,30.00,East,92,4.0,4.0,42,0.00,,,0.00,VWS V13.01,2012-04-13 14:24:00,
2012-04-13 09:29:00,63.9,40.3,30.00,NNE,20,5.4,5.8,42,0.00,,,0.00,VWS V13.01,2012-04-13 14:29:00,
2012-04-13 09:35:00,63.7,40.8,30.00,NE,39,3.6,5.8,43,0.00,,,0.00,VWS V13.01,2012-04-13 14:35:00,
2012-04-13 09:40:00,63.5,42.9,30.00,East,79,3.6,3.6,47,0.00,,,0.00,VWS V13.01,2012-04-13 14:40:00,
2012-04-13 09:41:00,63.5,42.4,30.00,ENE,71,3.6,4.0,46,0.00,,,0.00,VWS V13.01,2012-04-13 14:41:00,
2012-04-13 09:46:00,64.0,41.1,30.00,East,82,2.7,4.5,43,0.00,,,0.00,VWS V13.01,2012-04-13 14:46:00,
2012-04-13 09:51:00,64.4,41.4,30.00,SE,127,6.3,6.3,43,0.00,,,0.00,VWS V13.01,2012-04-13 14:51:00,
2012-04-13 09:56:00,64.4,41.4,30.00,NE,44,2.7,3.6,43,0.00,,,0.00,VWS V13.01,2012-04-13 14:56:00,
2012-04-13 10:01:00,64.4,43.2,30.00,NE,49,0.0,0.0,46,0.00,,,0.00,VWS V13.01,2012-04-13 15:01:00,
2012-04-13 10:06:00,64.4,42.6,30.00,ESE,122,2.7,3.1,45,0.00,,,0.00,VWS V13.01,2012-04-13 15:06:00,
2012-04-13 10:11:00,64.8,44.1,30.00,ESE,119,4.9,4.9,47,0.00,,,0.00,VWS V13.01,2012-04-13 15:11:00,
2012-04-13 10:16:00,64.6,43.4,30.00,East,92,2.7,4.9,46,0.00,,,0.00,VWS V13.01,2012-04-13 15:16:00,
2012-04-13 10:22:00,64.8,43.5,30.00,ESE,120,3.1,5.4,46,0.00,,,0.00,VWS V13.01,2012-04-13 15:22:00,
2012-04-13 10:27:00,65.5,44.2,30.00,NE,55,2.2,2.2,46,0.00,,,0.00,VWS V13.01,2012-04-13 15:27:00,
2012-04-13 10:33:00,66.6,44.6,30.00,ENE,63,3.6,3.6,45,0.00,,,0.00,VWS V13.01,2012-04-13 15:33:00,
2012-04-13 10:38:00,66.9,44.3,30.00,NE,46,5.8,7.2,44,0.00,,,0.00,VWS V13.01,2012-04-13 15:38:00,
2012-04-13 10:43:00,67.3,44.7,30.00,ENE,69,3.6,3.6,44,0.00,,,0.00,VWS V13.01,2012-04-13 15:43:00,
2012-04-13 10:49:00,67.5,44.8,30.00,ENE,70,4.9,8.1,44,0.00,,,0.00,VWS V13.01,2012-04-13 15:49:00,
2012-04-13 10:54:00,67.1,45.1,30.00,NE,54,2.7,2.7,45,0.00,,,0.00,VWS V13.01,2012-04-13 15:54:00,
2012-04-13 10:59:00,66.9,45.5,30.00,NE,43,4.9,4.9,46,0.00,,,0.00,VWS V13.01,2012-04-13 15:59:00,
2012-04-13 11:04:00,67.1,46.2,30.00,East,85,3.1,4.0,47,0.00,,,0.00,VWS V13.01,2012-04-13 16:04:00,
2012-04-13 11:09:00,67.8,46.3,30.00,ENE,75,6.3,6.3,46,0.00,,,0.00,VWS V13.01,2012-04-13 16:09:00,
2012-04-13 11:14:00,68.0,46.5,30.00,East,98,4.0,4.0,46,0.00,,,0.00,VWS V13.01,2012-04-13 16:14:00,
2012-04-13 11:19:00,68.0,47.0,30.00,East,90,2.2,5.4,47,0.00,,,0.00,VWS V13.01,2012-04-13 16:19:00,
2012-04-13 11:24:00,68.2,47.2,30.00,NE,35,3.1,4.9,47,0.00,,,0.00,VWS V13.01,2012-04-13 16:24:00,
2012-04-13 11:30:00,68.7,48.3,29.97,NE,44,0.0,4.0,48,0.00,,,0.00,VWS V13.01,2012-04-13 16:30:00,
2012-04-13 11:35:00,69.8,48.7,29.97,North,3,3.6,3.6,47,0.00,,,0.00,VWS V13.01,2012-04-13 16:35:00,
2012-04-13 11:40:00,70.3,49.2,29.97,NNE,28,2.7,2.7,47,0.00,,,0.00,VWS V13.01,2012-04-13 16:40:00,
2012-04-13 11:45:00,70.7,48.3,29.97,NNE,23,5.8,5.8,45,0.00,,,0.00,VWS V13.01,2012-04-13 16:45:00,
2012-04-13 11:50:00,70.7,48.9,29.97,East,94,2.7,4.9,46,0.00,,,0.00,VWS V13.01,2012-04-13 16:50:00,
2012-04-13 11:55:00,70.9,49.1,29.97,East,88,3.6,4.0,46,0.00,,,0.00,VWS V13.01,2012-04-13 16:55:00,
2012-04-13 12:00:00,70.9,48.5,29.97,ENE,78,3.6,3.6,45,0.00,,,0.00,VWS V13.01,2012-04-13 17:00:00,
2012-04-13 12:05:00,70.5,49.3,29.97,ESE,110,4.0,7.6,47,0.00,,,0.00,VWS V13.01,2012-04-13 17:05:00,
2012-04-13 12:10:00,70.9,50.2,29.97,East,94,5.4,5.4,48,0.00,,,0.00,VWS V13.01,2012-04-13 17:10:00,
2012-04-13 12:15:00,71.1,50.4,29.97,NE,54,3.6,4.0,48,0.00,,,0.00,VWS V13.01,2012-04-13 17:15:00,
2012-04-13 12:20:00,71.1,49.8,29.97,NNE,30,4.9,4.9,47,0.00,,,0.00,VWS V13.01,2012-04-13 17:20:00,
2012-04-13 12:25:00,71.2,50.0,29.97,NE,51,7.6,7.6,47,0.00,,,0.00,VWS V13.01,2012-04-13 17:25:00,
2012-04-13 12:30:00,71.1,49.8,29.97,East,87,4.0,5.8,47,0.00,,,0.00,VWS V13.01,2012-04-13 17:30:00,
2012-04-13 12:35:00,71.1,51.0,29.97,NNE,22,2.7,2.7,49,0.00,,,0.00,VWS V13.01,2012-04-13 17:35:00,
2012-04-13 12:40:00,71.2,50.6,29.97,NNE,31,4.0,4.0,48,0.00,,,0.00,VWS V13.01,2012-04-13 17:40:00,
2012-04-13 12:45:00,71.2,51.1,29.97,ENE,59,6.3,6.3,49,0.00,,,0.00,VWS V13.01,2012-04-13 17:45:00,
2012-04-13 12:50:00,71.2,51.1,29.97,ESE,106,2.2,4.0,49,0.00,,,0.00,VWS V13.01,2012-04-13 17:50:00,
2012-04-13 12:55:00,71.2,51.1,29.97,East,91,2.7,2.7,49,0.00,,,0.00,VWS V13.01,2012-04-13 17:55:00,
2012-04-13 13:00:00,71.4,51.3,29.97,ESE,105,3.6,3.6,49,0.00,,,0.00,VWS V13.01,2012-04-13 18:00:00,
2012-04-13 13:05:00,71.4,51.3,29.97,NE,54,5.4,5.4,49,0.00,,,0.00,VWS V13.01,2012-04-13 18:05:00,
2012-04-13 13:10:00,71.4,51.8,29.97,ESE,118,4.9,4.9,50,0.00,,,0.00,VWS V13.01,2012-04-13 18:10:00,
2012-04-13 13:15:00,71.4,51.3,29.97,ESE,119,5.4,6.7,49,0.00,,,0.00,VWS V13.01,2012-04-13 18:15:00,
2012-04-13 13:19:00,71.2,51.7,29.97,SSE,150,4.0,4.0,50,0.00,,,0.00,VWS V13.01,2012-04-13 18:19:00,
2012-04-13 13:25:00,71.1,51.5,29.97,ESE,118,3.6,4.0,50,0.00,,,0.00,VWS V13.01,2012-04-13 18:25:00,
2012-04-13 13:30:00,70.9,51.3,29.97,ESE,104,3.6,4.0,50,0.00,,,0.00,VWS V13.01,2012-04-13 18:30:00,
2012-04-13 13:35:00,70.9,51.9,29.97,SE,135,0.0,0.0,51,0.00,,,0.00,VWS V13.01,2012-04-13 18:35:00,
2012-04-13 13:40:00,71.1,52.0,29.97,East,90,3.6,5.4,51,0.00,,,0.00,VWS V13.01,2012-04-13 18:40:00,
2012-04-13 13:45:00,71.1,52.0,29.94,East,82,6.3,6.7,51,0.00,,,0.00,VWS V13.01,2012-04-13 18:45:00,
2012-04-13 13:50:00,71.4,52.4,29.94,NE,55,3.1,4.9,51,0.00,,,0.00,VWS V13.01,2012-04-13 18:50:00,
2012-04-13 13:55:00,72.0,52.3,29.94,SSE,147,3.6,4.9,50,0.00,,,0.00,VWS V13.01,2012-04-13 18:55:00,
2012-04-13 14:00:00,72.5,53.4,29.94,SE,131,3.6,3.6,51,0.00,,,0.00,VWS V13.01,2012-04-13 19:00:00,
2012-04-13 14:05:00,72.7,53.0,29.94,East,93,3.1,3.1,50,0.00,,,0.00,VWS V13.01,2012-04-13 19:05:00,
2012-04-13 14:10:00,73.0,53.3,29.94,SE,132,2.7,2.7,50,0.00,,,0.00,VWS V13.01,2012-04-13 19:10:00,
2012-04-13 14:15:00,73.0,52.8,29.94,ESE,102,2.7,2.7,49,0.00,,,0.00,VWS V13.01,2012-04-13 19:15:00,
2012-04-13 14:20:00,73.0,53.3,29.94,SW,229,0.0,0.0,50,0.00,,,0.00,VWS V13.01,2012-04-13 19:20:00,
2012-04-13 14:25:00,73.2,52.9,29.94,SSE,150,0.0,0.0,49,0.00,,,0.00,VWS V13.01,2012-04-13 19:25:00,
2012-04-13 14:30:00,73.4,52.0,29.94,SSE,157,3.6,4.0,47,0.00,,,0.00,VWS V13.01,2012-04-13 19:30:00,
2012-04-13 14:35:00,73.0,52.2,29.94,South,191,4.9,4.9,48,0.00,,,0.00,VWS V13.01,2012-04-13 19:35:00,
2012-04-13 14:40:00,72.9,52.6,29.94,SSE,150,0.0,0.0,49,0.00,,,0.00,VWS V13.01,2012-04-13 19:40:00,
2012-04-13 14:45:00,72.7,53.0,29.94,SSE,150,0.0,0.0,50,0.00,,,0.00,VWS V13.01,2012-04-13 19:45:00,
2012-04-13 14:50:00,72.7,53.5,29.94,SW,229,0.0,0.0,51,0.00,,,0.00,VWS V13.01,2012-04-13 19:50:00,
2012-04-13 14:55:00,72.7,54.1,29.94,SW,229,0.0,0.0,52,0.00,,,0.00,VWS V13.01,2012-04-13 19:55:00,
2012-04-13 15:00:00,72.9,53.7,29.94,South,169,0.0,0.0,51,0.00,,,0.00,VWS V13.01,2012-04-13 20:00:00,
2012-04-13 15:05:00,72.9,53.7,29.94,SSE,147,0.0,0.0,51,0.00,,,0.00,VWS V13.01,2012-04-13 20:05:00,
2012-04-13 15:10:00,73.0,53.9,29.94,SSE,147,0.0,0.0,51,0.00,,,0.00,VWS V13.01,2012-04-13 20:10:00,
2012-04-13 15:15:00,73.4,53.7,29.94,SSE,147,0.0,0.0,50,0.00,,,0.00,VWS V13.01,2012-04-13 20:15:00,
2012-04-13 15:20:00,73.4,52.5,29.94,SSE,159,0.0,0.0,48,0.00,,,0.00,VWS V13.01,2012-04-13 20:20:00,
2012-04-13 15:25:00,73.6,52.7,29.94,SW,221,0.0,0.0,48,0.00,,,0.00,VWS V13.01,2012-04-13 20:25:00,
2012-04-13 15:30:00,73.6,53.3,29.91,SW,221,0.0,0.0,49,0.00,,,0.00,VWS V13.01,2012-04-13 20:30:00,
2012-04-13 15:35:00,73.8,53.4,29.91,SW,221,0.0,0.0,49,0.00,,,0.00,VWS V13.01,2012-04-13 20:35:00,
2012-04-13 15:40:00,73.8,52.9,29.91,SW,221,0.0,0.0,48,0.00,,,0.00,VWS V13.01,2012-04-13 20:40:00,
2012-04-13 15:45:00,73.8,52.9,29.91,WSW,245,0.0,0.0,48,0.00,,,0.00,VWS V13.01,2012-04-13 20:45:00,
2012-04-13 15:50:00,73.8,52.3,29.91,West,263,2.2,2.2,47,0.00,,,0.00,VWS V13.01,2012-04-13 20:50:00,
2012-04-13 15:55:00,73.6,52.1,29.91,WSW,243,0.0,2.2,47,0.00,,,0.00,VWS V13.01,2012-04-13 20:55:00,
2012-04-13 16:00:00,73.4,52.0,29.91,WNW,287,0.0,0.0,47,0.00,,,0.00,VWS V13.01,2012-04-13 21:00:00,
2012-04-13 16:05:00,73.4,52.5,29.91,WNW,286,0.0,0.0,48,0.00,,,0.00,VWS V13.01,2012-04-13 21:05:00,
2012-04-13 16:10:00,73.6,53.3,29.91,WNW,287,0.0,0.0,49,0.00,,,0.00,VWS V13.01,2012-04-13 21:10:00,
2012-04-13 16:15:00,73.8,52.9,29.91,NW,310,0.0,0.0,48,0.00,,,0.00,VWS V13.01,2012-04-13 21:15:00,
2012-04-13 16:20:00,73.8,52.9,29.91,NW,310,0.0,0.0,48,0.00,,,0.00,VWS V13.01,2012-04-13 21:20:00,
2012-04-13 16:25:00,73.8,54.0,29.91,NW,310,0.0,0.0,50,0.00,,,0.00,VWS V13.01,2012-04-13 21:25:00,
2012-04-13 16:30:00,73.8,54.5,29.91,NW,310,0.0,0.0,51,0.00,,,0.00,VWS V13.01,2012-04-13 21:30:00,
2012-04-13 16:35:00,73.6,54.4,29.91,NW,310,0.0,0.0,51,0.00,,,0.00,VWS V13.01,2012-04-13 21:35:00,
2012-04-13 16:40:00,73.6,54.4,29.91,NW,310,0.0,0.0,51,0.00,,,0.00,VWS V13.01,2012-04-13 21:40:00,
2012-04-13 16:45:00,73.6,55.4,29.91,NW,310,0.0,0.0,53,0.00,,,0.00,VWS V13.01,2012-04-13 21:45:00,
2012-04-13 16:50:00,73.6,54.9,29.91,NW,310,0.0,0.0,52,0.00,,,0.00,VWS V13.01,2012-04-13 21:50:00,
2012-04-13 16:55:00,73.6,55.4,29.91,NW,310,0.0,0.0,53,0.00,,,0.00,VWS V13.01,2012-04-13 21:55:00,
2012-04-13 16:56:00,73.6,55.4,29.91,NW,310,0.0,0.0,53,0.00,,,0.00,VWS V13.01,2012-04-13 21:56:00,
2012-04-13 17:01:00,73.6,54.9,29.91,NW,310,0.0,0.0,52,0.00,,,0.00,VWS V13.01,2012-04-13 22:01:00,
2012-04-13 17:06:00,73.6,55.4,29.91,NW,310,0.0,0.0,53,0.00,,,0.00,VWS V13.01,2012-04-13 22:06:00,
2012-04-13 17:11:00,73.4,55.2,29.91,North,7,0.0,0.0,53,0.00,,,0.00,VWS V13.01,2012-04-13 22:11:00,
2012-04-13 17:17:00,73.4,55.8,29.91,North,7,0.0,0.0,54,0.00,,,0.00,VWS V13.01,2012-04-13 22:17:00,
2012-04-13 17:22:00,73.2,56.1,29.91,North,7,0.0,0.0,55,0.00,,,0.00,VWS V13.01,2012-04-13 22:22:00,
2012-04-13 17:27:00,73.0,55.9,29.91,NNW,334,0.0,0.0,55,0.00,,,0.00,VWS V13.01,2012-04-13 22:27:00,
2012-04-13 17:32:00,73.0,56.4,29.91,NNW,334,0.0,0.0,56,0.00,,,0.00,VWS V13.01,2012-04-13 22:32:00,
2012-04-13 17:37:00,73.0,56.9,29.91,NNW,334,0.0,0.0,57,0.00,,,0.00,VWS V13.01,2012-04-13 22:37:00,
2012-04-13 17:42:00,72.9,56.8,29.91,NNW,334,0.0,0.0,57,0.00,,,0.00,VWS V13.01,2012-04-13 22:42:00,
2012-04-13 17:47:00,72.5,57.8,29.91,NNW,335,0.0,0.0,60,0.00,,,0.00,VWS V13.01,2012-04-13 22:47:00,
2012-04-13 17:52:00,72.3,57.2,29.91,SE,136,0.0,3.6,59,0.00,,,0.00,VWS V13.01,2012-04-13 22:52:00,
2012-04-13 17:57:00,72.3,57.2,29.91,NE,46,0.0,0.0,59,0.00,,,0.00,VWS V13.01,2012-04-13 22:57:00,
2012-04-13 18:02:00,72.1,56.6,29.91,NE,46,0.0,0.0,58,0.00,,,0.00,VWS V13.01,2012-04-13 23:02:00,
2012-04-13 18:07:00,72.1,56.6,29.91,SSE,162,2.2,2.2,58,0.00,,,0.00,VWS V13.01,2012-04-13 23:07:00,
2012-04-13 18:12:00,72.3,54.8,29.91,ESE,123,3.1,4.0,54,0.00,,,0.00,VWS V13.01,2012-04-13 23:12:00,
2012-04-13 18:17:00,72.5,53.9,29.91,SE,131,2.2,2.7,52,0.00,,,0.00,VWS V13.01,2012-04-13 23:17:00,
2012-04-13 18:22:00,72.5,53.4,29.91,South,173,2.7,2.7,51,0.00,,,0.00,VWS V13.01,2012-04-13 23:22:00,
2012-04-13 18:27:00,72.7,52.4,29.91,SE,143,0.0,2.2,49,0.00,,,0.00,VWS V13.01,2012-04-13 23:27:00,
2012-04-13 18:32:00,72.9,52.6,29.91,SSE,147,2.2,2.7,49,0.00,,,0.00,VWS V13.01,2012-04-13 23:32:00,
2012-04-13 18:37:00,72.9,52.6,29.91,SSE,161,2.7,3.1,49,0.00,,,0.00,VWS V13.01,2012-04-13 23:37:00,
2012-04-13 18:42:00,72.9,52.0,29.91,SE,131,2.7,4.9,48,0.00,,,0.00,VWS V13.01,2012-04-13 23:42:00,
2012-04-13 18:48:00,72.7,52.4,29.91,ESE,102,0.0,0.0,49,0.00,,,0.00,VWS V13.01,2012-04-13 23:48:00,
2012-04-13 18:53:00,72.5,52.3,29.91,ESE,118,0.0,0.0,49,0.00,,,0.00,VWS V13.01,2012-04-13 23:53:00,
2012-04-13 18:58:00,72.5,52.3,29.91,SSE,150,3.1,3.1,49,0.00,,,0.00,VWS V13.01,2012-04-13 23:58:00,
2012-04-13 19:03:00,72.5,52.3,29.91,East,91,0.0,0.0,49,0.00,,,0.00,VWS V13.01,2012-04-14 00:03:00,
2012-04-13 19:08:00,72.3,52.1,29.91,East,98,0.0,0.0,49,0.00,,,0.00,VWS V13.01,2012-04-14 00:08:00,
2012-04-13 19:13:00,72.3,52.1,29.91,East,97,0.0,0.0,49,0.00,,,0.00,VWS V13.01,2012-04-14 00:13:00,
2012-04-13 19:18:00,72.3,53.2,29.91,East,79,0.0,0.0,51,0.00,,,0.00,VWS V13.01,2012-04-14 00:18:00,
2012-04-13 19:23:00,72.0,52.3,29.91,East,79,0.0,0.0,50,0.00,,,0.00,VWS V13.01,2012-04-14 00:23:00,
2012-04-13 19:28:00,72.0,52.3,29.91,ENE,70,4.0,4.9,50,0.00,,,0.00,VWS V13.01,2012-04-14 00:28:00,
2012-04-13 19:33:00,72.0,52.3,29.91,ESE,108,2.2,2.2,50,0.00,,,0.00,VWS V13.01,2012-04-14 00:33:00,
2012-04-13 19:38:00,72.0,52.3,29.91,ENE,71,5.8,5.8,50,0.00,,,0.00,VWS V13.01,2012-04-14 00:38:00,
2012-04-13 19:43:00,72.1,51.9,29.91,ESE,121,4.9,6.3,49,0.00,,,0.00,VWS V13.01,2012-04-14 00:43:00,
2012-04-13 19:48:00,72.3,52.1,29.88,ENE,63,3.6,4.9,49,0.00,,,0.00,VWS V13.01,2012-04-14 00:48:00,
2012-04-13 19:53:00,72.3,52.1,29.88,NE,51,4.0,4.0,49,0.00,,,0.00,VWS V13.01,2012-04-14 00:53:00,
2012-04-13 19:58:00,72.1,52.5,29.88,SE,133,4.9,4.9,50,0.00,,,0.00,VWS V13.01,2012-04-14 00:58:00,
2012-04-13 20:03:00,72.1,52.5,29.91,SE,139,2.2,4.0,50,0.00,,,0.00,VWS V13.01,2012-04-14 01:03:00,
2012-04-13 20:08:00,72.1,52.5,29.91,ESE,112,3.1,3.1,50,0.00,,,0.00,VWS V13.01,2012-04-14 01:08:00,
2012-04-13 20:13:00,72.0,52.3,29.91,ESE,105,0.0,0.0,50,0.00,,,0.00,VWS V13.01,2012-04-14 01:13:00,
2012-04-13 20:18:00,71.8,52.7,29.91,East,90,0.0,0.0,51,0.00,,,0.00,VWS V13.01,2012-04-14 01:18:00,
2012-04-13 20:23:00,71.8,52.7,29.91,NE,45,2.7,2.7,51,0.00,,,0.00,VWS V13.01,2012-04-14 01:23:00,
2012-04-13 20:28:00,71.6,52.5,29.91,East,85,2.7,2.7,51,0.00,,,0.00,VWS V13.01,2012-04-14 01:28:00,
2012-04-13 20:33:00,71.6,53.1,29.94,ENE,58,0.0,0.0,52,0.00,,,0.00,VWS V13.01,2012-04-14 01:33:00,
2012-04-13 20:39:00,71.4,52.9,29.94,ESE,110,2.2,4.0,52,0.00,,,0.00,VWS V13.01,2012-04-14 01:39:00,
2012-04-13 20:44:00,71.4,53.4,29.94,East,91,2.2,2.7,53,0.00,,,0.00,VWS V13.01,2012-04-14 01:44:00,
2012-04-13 20:49:00,71.2,53.2,29.94,ENE,75,0.0,0.0,53,0.00,,,0.00,VWS V13.01,2012-04-14 01:49:00,
2012-04-13 20:54:00,71.1,53.1,29.94,ENE,75,0.0,0.0,53,0.00,,,0.00,VWS V13.01,2012-04-14 01:54:00,
2012-04-13 20:59:00,71.1,53.1,29.94,ENE,76,0.0,0.0,53,0.00,,,0.00,VWS V13.01,2012-04-14 01:59:00,
2012-04-13 21:04:00,70.9,53.4,29.94,NE,46,2.2,3.1,54,0.00,,,0.00,VWS V13.01,2012-04-14 02:04:00,
2012-04-13 21:09:00,70.9,53.9,29.94,NE,51,0.0,0.0,55,0.00,,,0.00,VWS V13.01,2012-04-14 02:09:00,
2012-04-13 21:14:00,70.7,53.3,29.94,East,100,0.0,3.1,54,0.00,,,0.00,VWS V13.01,2012-04-14 02:14:00,
2012-04-13 21:19:00,70.7,53.3,29.94,ENE,78,0.0,0.0,54,0.00,,,0.00,VWS V13.01,2012-04-14 02:19:00,
2012-04-13 21:24:00,70.7,53.8,29.94,NE,46,0.0,2.7,55,0.00,,,0.00,VWS V13.01,2012-04-14 02:24:00,
2012-04-13 21:29:00,70.7,53.8,29.94,NE,40,0.0,0.0,55,0.00,,,0.00,VWS V13.01,2012-04-14 02:29:00,
2012-04-13 21:34:00,70.5,54.1,29.94,NE,40,0.0,0.0,56,0.00,,,0.00,VWS V13.01,2012-04-14 02:34:00,
2012-04-13 21:39:00,70.3,53.9,29.94,NE,40,0.0,0.0,56,0.00,,,0.00,VWS V13.01,2012-04-14 02:39:00,
2012-04-13 21:44:00,70.2,54.7,29.94,NE,40,0.0,0.0,58,0.00,,,0.00,VWS V13.01,2012-04-14 02:44:00,
2012-04-13 21:49:00,70.0,55.0,29.94,NE,45,2.2,3.1,59,0.00,,,0.00,VWS V13.01,2012-04-14 02:49:00,
2012-04-13 21:54:00,69.6,55.1,29.94,NE,44,0.0,0.0,60,0.00,,,0.00,VWS V13.01,2012-04-14 02:54:00,
2012-04-13 21:59:00,69.3,55.7,29.94,NE,41,2.2,3.6,62,0.00,,,0.00,VWS V13.01,2012-04-14 02:59:00,
2012-04-13 22:04:00,69.1,55.5,29.94,NE,40,0.0,0.0,62,0.00,,,0.00,VWS V13.01,2012-04-14 03:04:00,
2012-04-13 22:09:00,69.1,56.0,29.94,NE,40,2.2,2.2,63,0.00,,,0.00,VWS V13.01,2012-04-14 03:09:00,
2012-04-13 22:14:00,68.9,55.8,29.94,NE,41,0.0,0.0,63,0.00,,,0.00,VWS V13.01,2012-04-14 03:14:00,
2012-04-13 22:19:00,68.9,55.4,29.94,NE,36,0.0,0.0,62,0.00,,,0.00,VWS V13.01,2012-04-14 03:19:00,
2012-04-13 22:24:00,69.1,55.5,29.94,ENE,67,0.0,2.7,62,0.00,,,0.00,VWS V13.01,2012-04-14 03:24:00,
2012-04-13 22:29:00,69.1,55.5,29.94,ENE,73,0.0,0.0,62,0.00,,,0.00,VWS V13.01,2012-04-14 03:29:00,
2012-04-13 22:34:00,69.1,55.5,29.94,ENE,60,0.0,0.0,62,0.00,,,0.00,VWS V13.01,2012-04-14 03:34:00,
2012-04-13 22:39:00,69.3,55.7,29.94,NE,45,2.7,2.7,62,0.00,,,0.00,VWS V13.01,2012-04-14 03:39:00,
2012-04-13 22:44:00,69.3,55.2,29.94,NE,48,0.0,2.7,61,0.00,,,0.00,VWS V13.01,2012-04-14 03:44:00,
2012-04-13 22:49:00,69.3,55.2,29.91,ENE,77,0.0,0.0,61,0.00,,,0.00,VWS V13.01,2012-04-14 03:49:00,
2012-04-13 22:54:00,69.3,55.2,29.91,NNE,16,0.0,0.0,61,0.00,,,0.00,VWS V13.01,2012-04-14 03:54:00,
2012-04-13 22:59:00,69.3,55.7,29.91,NNE,15,0.0,0.0,62,0.00,,,0.00,VWS V13.01,2012-04-14 03:59:00,
2012-04-13 23:00:00,69.3,55.7,29.94,NNE,12,0.0,0.0,62,0.00,,,0.00,VWS V13.01,2012-04-14 04:00:00,
2012-04-13 23:05:00,69.1,55.5,29.94,NNE,33,0.0,0.0,62,0.00,,,0.00,VWS V13.01,2012-04-14 04:05:00,
2012-04-13 23:10:00,69.1,55.5,29.94,NNE,33,0.0,0.0,62,0.00,,,0.00,VWS V13.01,2012-04-14 04:10:00,
2012-04-13 23:15:00,69.1,56.0,29.94,NNE,33,0.0,0.0,63,0.00,,,0.00,VWS V13.01,2012-04-14 04:15:00,
2012-04-13 23:16:00,69.1,56.0,29.94,NNE,33,0.0,0.0,63,0.00,,,0.00,VWS V13.01,2012-04-14 04:16:00,
2012-04-13 23:21:00,68.9,56.2,29.94,NNE,23,0.0,0.0,64,0.00,,,0.00,VWS V13.01,2012-04-14 04:21:00,
2012-04-13 23:26:00,68.7,56.1,29.94,North,4,2.2,2.2,64,0.00,,,0.00,VWS V13.01,2012-04-14 04:26:00,
2012-04-13 23:31:00,68.7,55.6,29.94,North,351,0.0,0.0,63,0.00,,,0.00,VWS V13.01,2012-04-14 04:31:00,
2012-04-13 23:36:00,68.7,56.1,29.94,North,4,2.7,2.7,64,0.00,,,0.00,VWS V13.01,2012-04-14 04:36:00,
2012-04-13 23:41:00,68.7,55.6,29.94,North,5,0.0,0.0,63,0.00,,,0.00,VWS V13.01,2012-04-14 04:41:00,
2012-04-13 23:46:00,68.7,56.1,29.94,NNE,26,0.0,0.0,64,0.00,,,0.00,VWS V13.01,2012-04-14 04:46:00,
2012-04-13 23:51:00,68.7,56.5,29.94,NNE,27,0.0,2.2,65,0.00,,,0.00,VWS V13.01,2012-04-14 04:51:00,
2012-04-13 23:56:00,68.7,56.5,29.94,NNE,27,0.0,0.0,65,0.00,,,0.00,VWS V13.01,2012-04-14 04:56:00,